Flight Track Log - Related Links

Times and Time Zones

All times are in EST time to prevent confusion due to time zone crossing. See the TAM3891 flight status page for this flight to view local times or setup timezone preferences in your user account.

Time Position Orientation Groundspeed Altitude Reporting Facility
EST Latitude Longitude Course Direction KTS MPH feet Rate Location/Type
Fri 01:43:00 PM -2.8560 -58.7401 82° East  Level Estimated
Fri 01:44:00 PM -2.8419 -58.6394 82° East  Level Estimated
Fri 01:45:00 PM -2.8278 -58.5387 82° East  Level Estimated
Fri 01:46:00 PM -2.8137 -58.4380 82° East  Level Estimated
Fri 01:47:00 PM -2.7995 -58.3372 82° East  Level Estimated
Fri 01:48:00 PM -2.7854 -58.2365 82° East  Level Estimated
Fri 01:49:00 PM -2.7712 -58.1358 82° East  Level Estimated
Fri 01:50:00 PM -2.7571 -58.0351 82° East  Level Estimated
Fri 01:51:00 PM -2.7429 -57.9344 82° East  Level Estimated
Fri 01:52:00 PM -2.7287 -57.8337 82° East  Level Estimated
Fri 01:53:00 PM -2.7145 -57.7330 82° East  Level Estimated
Fri 01:54:00 PM -2.7004 -57.6323 82° East  Level Estimated
Fri 01:55:00 PM -2.6862 -57.5316 82° East  Level Estimated
Fri 01:56:00 PM -2.6719 -57.4309 82° East  Level Estimated
Fri 01:57:00 PM -2.6577 -57.3302 82° East  Level Estimated
Fri 01:58:00 PM -2.6435 -57.2296 82° East  Level Estimated
Fri 01:59:00 PM -2.6293 -57.1289 82° East  Level Estimated
Fri 02:00:00 PM -2.6150 -57.0282 82° East  Level Estimated
Fri 02:01:00 PM -2.6008 -56.9275 82° East  Level Estimated
Fri 02:02:00 PM -2.5865 -56.8268 82° East  Level Estimated
Fri 02:03:00 PM -2.5722 -56.7262 82° East  Level Estimated
Fri 02:04:00 PM -2.5580 -56.6255 82° East  Level Estimated
Fri 02:05:00 PM -2.5437 -56.5248 82° East  Level Estimated
Fri 02:06:00 PM -2.5294 -56.4241 82° East  Level Estimated
Fri 02:07:00 PM -2.5151 -56.3235 82° East  Level Estimated
Fri 02:08:00 PM -2.5008 -56.2228 82° East  Level Estimated
Fri 02:09:00 PM -2.4865 -56.1222 82° East  Level Estimated
Fri 02:10:00 PM -2.4721 -56.0215 82° East  Level Estimated
Fri 02:11:00 PM -2.4578 -55.9208 82° East  Level Estimated
Fri 02:12:00 PM -2.4435 -55.8202 82° East  Level Estimated
Fri 02:13:00 PM -2.4291 -55.7195 82° East  Level Estimated
Fri 02:14:00 PM -2.4148 -55.6189 82° East  Level Estimated
Fri 02:15:00 PM -2.4004 -55.5182 82° East  Level Estimated
Fri 02:16:00 PM -2.3860 -55.4176 82° East  Level Estimated
Fri 02:17:00 PM -2.3717 -55.3169 82° East  Level Estimated
Fri 02:18:00 PM -2.3573 -55.2163 82° East  Level Estimated
Fri 02:19:00 PM -2.3429 -55.1156 82° East  Level Estimated
Fri 02:20:00 PM -2.3285 -55.0150 82° East  Level Estimated
Fri 02:21:00 PM -2.3141 -54.9144 82° East  Level Estimated
Fri 02:22:00 PM -2.2997 -54.8137 82° East  Level Estimated
Fri 02:23:00 PM -2.2853 -54.7131 82° East  Level Estimated
Fri 02:24:00 PM -2.2709 -54.6125 82° East  Level Estimated
Fri 02:25:00 PM -2.2564 -54.5118 82° East  Level Estimated
Fri 02:26:00 PM -2.2420 -54.4112 82° East  Level Estimated
Fri 02:27:00 PM -2.2275 -54.3106 82° East  Level Estimated
Fri 02:28:00 PM -2.2131 -54.2099 82° East  Level Estimated
Fri 02:29:00 PM -2.1986 -54.1093 82° East  Level Estimated
Fri 02:30:00 PM -2.1842 -54.0087 82° East  Level Estimated
Fri 02:31:00 PM -2.1697 -53.9081 82° East  Level Estimated
Fri 02:32:00 PM -2.1552 -53.8075 82° East  Level Estimated
Fri 02:33:00 PM -2.1407 -53.7069 82° East  Level Estimated
Fri 02:34:00 PM -2.1262 -53.6063 82° East  Level Estimated
Fri 02:35:00 PM -2.1117 -53.5056 82° East  Level Estimated
Fri 02:36:00 PM -2.0972 -53.4050 82° East  Level Estimated
Fri 02:37:00 PM -2.0827 -53.3044 82° East  Level Estimated
Fri 02:38:00 PM -2.0682 -53.2038 82° East  Level Estimated
Fri 02:39:00 PM -2.0537 -53.1032 82° East  Level Estimated
Fri 02:40:00 PM -2.0391 -53.0026 82° East  Level Estimated
Fri 02:41:00 PM -2.0246 -52.9020 82° East  Level Estimated
Fri 02:42:00 PM -2.0101 -52.8014 82° East  Level Estimated
Fri 02:43:00 PM -1.9955 -52.7008 82° East  Level Estimated
Fri 02:44:00 PM -1.9809 -52.6002 82° East  Level Estimated
Fri 02:45:00 PM -1.9664 -52.4996 82° East  Level Estimated
Fri 02:46:00 PM -1.9518 -52.3991 82° East  Level Estimated
Fri 02:47:00 PM -1.9372 -52.2985 82° East  Level Estimated
Fri 02:48:00 PM -1.9227 -52.1979 82° East  Level Estimated
Fri 02:49:00 PM -1.9081 -52.0973 82° East  Level Estimated
Fri 02:50:00 PM -1.8935 -51.9967 82° East  Level Estimated
Fri 02:51:00 PM -1.8789 -51.8961 82° East  Level Estimated
Fri 02:52:00 PM -1.8643 -51.7956 82° East  Level Estimated
Fri 02:53:00 PM -1.8497 -51.6950 82° East  Level Estimated
Fri 02:54:00 PM -1.8350 -51.5944 82° East  Level Estimated
Fri 02:55:00 PM -1.8204 -51.4938 82° East  Level Estimated
Fri 02:56:00 PM -1.8058 -51.3933 82° East  Level Estimated
Fri 02:57:00 PM -1.7912 -51.2927 82° East  Level Estimated
Fri 02:58:00 PM -1.7765 -51.1921 82° East  Level Estimated
Fri 02:59:00 PM -1.7619 -51.0915 82° East  Level Estimated
Fri 03:00:00 PM -1.7472 -50.9910 82° East  Level Estimated
Fri 03:01:00 PM -1.7326 -50.8904 82° East  Level Estimated
Fri 03:02:00 PM -1.7179 -50.7899 82° East  Level Estimated
Fri 03:03:00 PM -1.7033 -50.6893 82° East  Level Estimated
Fri 03:04:00 PM -1.6886 -50.5887 82° East  Level Estimated
Fri 03:05:00 PM -1.6739 -50.4882 82° East  Level Estimated
Fri 03:06:00 PM -1.6592 -50.3876 82° East  Level Estimated
Fri 03:07:00 PM -1.6445 -50.2871 82° East  Level Estimated
Fri 03:08:00 PM -1.6299 -50.1865 82° East  Level Estimated
Fri 03:09:00 PM -1.6152 -50.0860 82° East  Level Estimated
Fri 03:10:00 PM -1.6005 -49.9854 82° East  Level Estimated
Fri 03:11:00 PM -1.5858 -49.8849 82° East  Level Estimated
Fri 03:12:00 PM -1.5711 -49.7843 82° East  Level Estimated
Fri 03:13:00 PM -1.5563 -49.6838 82° East  Level Estimated
Fri 03:14:00 PM -1.5416 -49.5832 82° East  Level Estimated
Fri 03:15:00 PM -1.5269 -49.4827 82° East  Level Estimated
Fri 03:16:00 PM -1.5122 -49.3821 82° East  Level Estimated
Fri 03:17:00 PM -1.4974 -49.2816 82° East  Level Estimated
Fri 03:18:00 PM -1.4827 -49.1810 82° East  Level Estimated
Fri 03:19:00 PM -1.4680 -49.0805 82° East  Level Estimated
Fri 03:20:00 PM -1.4532 -48.9800 82° East  Level Estimated
Fri 03:21:00 PM -1.4385 -48.8794 82° East  Level Estimated
Fri 03:22:00 PM -1.4237 -48.7789 82° East  Level Estimated
Fri 03:23:00 PM -1.4089 -48.6784 82° East  Level Estimated
Fri 03:24:00 PM -1.3942 -48.5778 82° East  Level Estimated
Fri 03:25:00 PM -1.3794 -48.4773 82° East  Level Estimated
Fri 03:26:00 PM -1.3793 -48.4763 82° East  Level Estimated
Fri 03:27:00 PM -1.3793 -48.4763 270° West  Level Estimated
Fri 03:28:00 PM -1.3793 -48.4763 270° West  Level Estimated
Fri 03:29:00 PM -1.3793 -48.4763 270° West  Level Estimated
Fri 03:30:00 PM -1.3793 -48.4763 270° West  Level Estimated
Fri 03:31:00 PM -1.3793 -48.4763 270° West  Level Estimated
Fri 03:32:00 PM -1.3793 -48.4763 270° West  Level Estimated
Fri 03:33:00 PM -1.3793 -48.4763 270° West  Level Estimated
Fri 03:34:00 PM -1.3793 -48.4763 270° West  Level Estimated
Fri 03:35:00 PM -1.3793 -48.4763 270° West  Level Estimated
Fri 03:36:00 PM -1.3793 -48.4763 270° West  Level Estimated
Fri 03:37:00 PM -1.3793 -48.4763 270° West  Level Estimated
Fri 03:38:00 PM -1.3793 -48.4763 270° West  Level Estimated
Fri 03:39:00 PM -1.3793 -48.4763 270° West  Level Estimated
Fri 03:40:00 PM -1.3793 -48.4763 270° West  Level Estimated
Fri 03:41:00 PM -1.3793 -48.4763 270° West  Level Estimated

Login

Don't have an account? Register now (free) for customized features, flight alerts, and more!